Flight Track Log - Related Links

Times and Time Zones

All times are in EDT time to prevent confusion due to time zone crossing. See the N273SK flight status page for this flight to view local times or setup timezone preferences in your user account.

Time Position Orientation Groundspeed Altitude Reporting Facility
EDT Latitude Longitude Course Direction KTS MPH feet Rate Location/Type
Sun 10:42:34 PM 40.7500 -73.8333 259° West 156 180 1,900  Level New York TRACON
Sun 10:43:34 PM 40.7500 -73.7833 90° East 217 250 4,700 2,800 Climbing New York TRACON
Sun 10:44:34 PM 40.7833 -73.8333 311° West 220 253 7,500 2,619 Climbing New York TRACON
Sun 10:45:00 PM 40.6801 -74.3263 257° West  Level FlightAware Approximate
Sun 10:45:40 PM 40.8000 -73.9167 285° West 247 284 10,200  Level New York TRACON
Sun 10:46:00 PM 40.6598 -74.4447 259° West  Level FlightAware Approximate
Sun 10:47:00 PM 40.6415 -74.5636 259° West  Level FlightAware Approximate
Sun 10:47:18 PM 40.7694 -74.0783 256° West 278 320 13,200  Level New York Center
Sun 10:48:16 PM 40.7353 -74.1808 246° West 300 345 14,800 1,678 Climbing New York Center
Sun 10:49:16 PM 40.7014 -74.2719 244° Southwest 310 357 16,500 1,100 Climbing New York Center
Sun 10:50:16 PM 40.6581 -74.3931 245° Southwest 328 377 17,000 250 Climbing New York Center
Sun 10:51:16 PM 40.6172 -74.5028 244° Southwest 359 413 17,000 744 Level New York Center
Sun 10:52:17 PM 40.5758 -74.6208 245° Southwest 359 413 18,500 1,721 Climbing New York Center
Sun 10:53:18 PM 40.5300 -74.7467 244° Southwest 354 407 20,500 1,800 Climbing New York Center
Sun 10:54:17 PM 40.4864 -74.8642 244° Southwest 354 407 22,100 1,627 Climbing New York Center
Sun 10:55:16 PM 40.4428 -74.9789 243° Southwest 354 407 23,700 1,563 Climbing New York Center
Sun 10:56:16 PM 40.3989 -75.0989 244° Southwest 354 407 25,200 1,463 Climbing New York Center
Sun 10:57:19 PM 40.3528 -75.2211 244° Southwest 362 417 26,700 1,317 Climbing New York Center
Sun 10:58:19 PM 40.3131 -75.3303 245° Southwest 357 411 27,900 605 Climbing New York Center
Sun 10:59:18 PM 40.2667 -75.4522 244° Southwest 362 417 27,900  Level New York Center
Sun 11:00:16 PM 40.2178 -75.5769 243° Southwest 375 432 27,900  Level New York Center
Sun 11:01:16 PM 40.1611 -75.6897 237° Southwest 400 460 27,900  Level New York Center
Sun 11:02:17 PM 40.0994 -75.8128 237° Southwest 410 472 27,900  Level New York Center
Sun 11:03:16 PM 40.0381 -75.9358 237° Southwest 410 472 27,900  Level New York Center
Sun 11:04:17 PM 39.9681 -76.0525 232° Southwest 417 480 27,900  Level New York Center
Sun 11:05:18 PM 39.9006 -76.1611 231° Southwest 411 473 27,900  Level New York Center
Sun 11:07:01 PM 39.7675 -76.3664 230° Southwest 403 464 27,900  Level Washington Center
Sun 11:08:00 PM 39.6958 -76.4761 230° Southwest 403 464 27,900 50 Level Washington Center
Sun 11:09:01 PM 39.6200 -76.5828 227° Southwest 403 464 28,000 50 Climbing Washington Center
Sun 11:10:00 PM 39.5461 -76.6950 230° Southwest 408 470 28,000  Level Washington Center
Sun 11:11:00 PM 39.4742 -76.8042 230° Southwest 408 470 28,000  Level Washington Center
Sun 11:12:00 PM 39.4022 -76.9103 229° Southwest 408 470 28,000  Level Washington Center
Sun 11:13:02 PM 39.3322 -77.0217 231° Southwest 402 463 28,000 -200 Level Washington Center
Sun 11:14:00 PM 39.2622 -77.1275 230° Southwest 402 463 27,600 -508 Descending Washington Center
Sun 11:15:00 PM 39.1897 -77.2331 228° Southwest 402 463 27,000 -295 Descending Washington Center
Sun 11:16:02 PM 39.1194 -77.3414 230° Southwest 402 463 27,000  Level Washington Center
Sun 11:17:00 PM 39.0469 -77.4519 230° Southwest 402 463 27,000  Level Washington Center
Sun 11:18:01 PM 38.9850 -77.5492 231° Southwest 402 463 27,000  Level Washington Center
Sun 11:19:02 PM 38.9081 -77.6644 229° Southwest 395 455 27,000  Level Washington Center
Sun 11:20:02 PM 38.8439 -77.7611 230° Southwest 400 460 27,000 -50 Level Washington Center
Sun 11:21:02 PM 38.7753 -77.8656 230° Southwest 401 461 26,900 -763 Descending Washington Center
Sun 11:22:00 PM 38.7064 -77.9700 230° Southwest 396 456 25,500 -1,412 Descending Washington Center
Sun 11:23:01 PM 38.6397 -78.0689 229° Southwest 386 444 24,100 -1,240 Descending Washington Center
Sun 11:24:01 PM 38.5731 -78.1675 229° Southwest 374 430 23,000 -545 Descending Washington Center
Sun 11:25:02 PM 38.5064 -78.2686 230° Southwest 374 430 23,000  Level Washington Center
Sun 11:26:00 PM 38.4372 -78.3697 229° Southwest 374 430 23,000  Level Washington Center
Sun 11:27:00 PM 38.3703 -78.4731 230° Southwest 374 430 23,000  Level Washington Center
Sun 11:28:01 PM 38.3011 -78.5736 229° Southwest 374 430 23,000  Level Washington Center
Sun 11:29:01 PM 38.2336 -78.6767 230° Southwest 374 430 23,000  Level Washington Center
Sun 11:30:01 PM 38.1644 -78.7767 229° Southwest 374 430 23,000 -300 Level Washington Center
Sun 11:31:01 PM 38.0906 -78.8869 230° Southwest 374 430 22,400 -1,059 Descending Washington Center
Sun 11:32:00 PM 38.0231 -78.9842 229° Southwest 374 430 20,900 -1,488 Descending Washington Center
Sun 11:33:02 PM 37.9556 -79.0814 229° Southwest 374 430 19,400 -1,475 Descending Washington Center
Sun 11:34:02 PM 37.8903 -79.1756 229° Southwest 374 430 17,900 -1,424 Descending Washington Center
Sun 11:35:00 PM 37.8314 -79.2622 229° Southwest 369 425 16,600 -1,412 Descending Washington Center
Sun 11:36:01 PM 37.7703 -79.3486 228° Southwest 357 411 15,100 -1,550 Descending Washington Center
Sun 11:37:00 PM 37.7092 -79.4322 227° Southwest 323 372 13,500 -1,563 Descending Washington Center
Sun 11:38:00 PM 37.6522 -79.5158 229° Southwest 309 356 12,000 -992 Descending Washington Center
Sun 11:39:01 PM 37.6081 -79.5950 235° Southwest 304 350 11,500 -590 Descending Washington Center
Sun 11:40:02 PM 37.5525 -79.6942 235° Southwest 323 372 10,800 -843 Descending Washington Center
Sun 11:41:02 PM 37.5125 -79.7678 236° Southwest 307 353 9,800 -1,200 Descending Washington Center
Sun 11:42:02 PM 37.4722 -79.8442 236° Southwest 273 314 8,400 -1,271 Descending Washington Center
Sun 11:43:00 PM 37.4342 -79.9128 235° Southwest 262 302 7,300 -1,150 Descending Washington Center
Sun 11:44:02 PM 37.3939 -79.9861 235° Southwest 250 288 6,100 -650 Descending Washington Center
Sun 11:45:00 PM 37.3539 -80.0519 233° Southwest 243 280 6,000 -103 Descending Washington Center

Login

Don't have an account? Register now (free) for customized features, flight alerts, and more!